createdAt,value
2018-03-15T00:00:03.094Z,0
2018-03-15T00:01:12.824Z,0
2018-03-15T00:02:22.286Z,0
2018-03-15T00:03:32.019Z,0
2018-03-15T00:04:42.013Z,0
2018-03-15T00:05:52.005Z,0
2018-03-15T00:07:01.994Z,0
2018-03-15T00:08:10.965Z,0
2018-03-15T00:09:20.954Z,0
2018-03-15T00:10:30.946Z,0
2018-03-15T00:11:40.684Z,0
2018-03-15T00:12:50.679Z,0
2018-03-15T00:14:00.675Z,0
2018-03-15T00:15:10.418Z,0
2018-03-15T00:16:20.414Z,0
2018-03-15T00:17:30.140Z,0
2018-03-15T00:18:40.137Z,0
2018-03-15T00:19:50.127Z,0
2018-03-15T00:21:00.122Z,0
2018-03-15T00:22:09.848Z,0
2018-03-15T00:23:19.835Z,0
2018-03-15T00:24:29.299Z,0
2018-03-15T00:25:38.806Z,0
2018-03-15T00:26:48.808Z,0
2018-03-15T00:27:58.795Z,0
2018-03-15T00:29:08.261Z,0
2018-03-15T00:30:17.981Z,0
2018-03-15T00:31:27.976Z,0
2018-03-15T00:32:37.702Z,0
2018-03-15T00:33:47.168Z,0
2018-03-15T00:34:56.965Z,0
2018-03-15T00:36:06.703Z,0
2018-03-15T00:37:16.265Z,0
2018-03-15T00:38:26.254Z,0
2018-03-15T00:39:35.191Z,0
2018-03-15T00:40:45.027Z,0
2018-03-15T00:41:54.495Z,0
2018-03-15T00:43:04.490Z,0
2018-03-15T00:44:14.484Z,0
2018-03-15T00:45:24.209Z,0
2018-03-15T00:46:33.938Z,0
2018-03-15T00:47:43.934Z,0
2018-03-15T00:48:53.927Z,0
2018-03-15T00:50:03.650Z,0
2018-03-15T00:51:13.381Z,0
2018-03-15T00:52:23.101Z,0
2018-03-15T00:53:33.155Z,0
2018-03-15T00:54:42.887Z,0
2018-03-15T00:55:52.626Z,0
2018-03-15T00:57:02.615Z,0
2018-03-15T00:58:12.473Z,0
2018-03-15T00:59:22.504Z,0
2018-03-15T01:00:32.232Z,0
2018-03-15T01:01:42.233Z,0
2018-03-15T01:02:51.950Z,0
2018-03-15T01:04:01.681Z,0
2018-03-15T01:05:11.419Z,0
2018-03-15T01:06:21.406Z,0
2018-03-15T01:07:31.403Z,0
2018-03-15T01:08:41.409Z,0
2018-03-15T01:09:51.142Z,0
2018-03-15T01:11:01.136Z,0
2018-03-15T01:12:10.596Z,0
2018-03-15T01:13:20.327Z,0
2018-03-15T01:14:30.322Z,0
2018-03-15T01:15:40.056Z,0
2018-03-15T01:16:50.055Z,0
2018-03-15T01:18:00.154Z,0
2018-03-15T01:19:09.876Z,0
2018-03-15T01:20:19.865Z,0
2018-03-15T01:21:29.856Z,0
2018-03-15T01:22:39.844Z,0
2018-03-15T01:23:49.843Z,0
2018-03-15T01:24:59.836Z,0
2018-03-15T01:26:09.561Z,0
2018-03-15T01:27:19.648Z,0
2018-03-15T01:28:29.643Z,0
2018-03-15T01:29:39.371Z,0
2018-03-15T01:30:48.828Z,0
2018-03-15T01:31:58.288Z,0
2018-03-15T01:33:07.745Z,0
2018-03-15T01:34:17.732Z,0
2018-03-15T01:35:27.733Z,0
2018-03-15T01:36:37.460Z,0
2018-03-15T01:37:46.917Z,0
2018-03-15T01:38:56.644Z,0
2018-03-15T01:40:05.836Z,0
2018-03-15T01:41:15.287Z,0
2018-03-15T01:42:24.742Z,0
2018-03-15T01:43:34.778Z,0
2018-03-15T01:44:44.775Z,0
2018-03-15T01:45:54.505Z,0
2018-03-15T01:47:04.239Z,0
2018-03-15T01:48:14.243Z,0
2018-03-15T01:49:23.703Z,0
2018-03-15T01:50:33.432Z,0
2018-03-15T01:51:43.435Z,0
2018-03-15T01:52:53.435Z,0
2018-03-15T01:54:03.453Z,0
2018-03-15T01:55:13.442Z,0
2018-03-15T01:56:23.438Z,0
2018-03-15T01:57:33.435Z,0
2018-03-15T01:58:43.164Z,0
2018-03-15T01:59:52.890Z,0
2018-03-15T02:01:02.896Z,0
2018-03-15T02:02:12.089Z,0
2018-03-15T02:03:21.820Z,0
2018-03-15T02:04:31.963Z,0
2018-03-15T02:05:41.946Z,0
2018-03-15T02:06:51.402Z,0
2018-03-15T02:08:01.411Z,0
2018-03-15T02:09:11.420Z,0
2018-03-15T02:10:20.883Z,0
2018-03-15T02:11:30.884Z,0
2018-03-15T02:12:40.874Z,0
2018-03-15T02:13:50.864Z,0
2018-03-15T02:15:00.851Z,0
2018-03-15T02:16:10.040Z,0
2018-03-15T02:17:20.081Z,0
2018-03-15T02:18:29.808Z,0
2018-03-15T02:19:39.807Z,0
2018-03-15T02:20:49.841Z,0
2018-03-15T02:21:59.862Z,0
2018-03-15T02:23:09.596Z,0
2018-03-15T02:24:19.320Z,0
2018-03-15T02:25:29.043Z,0
2018-03-15T02:26:38.767Z,0
2018-03-15T02:27:48.762Z,0
2018-03-15T02:28:58.217Z,0
2018-03-15T02:30:07.946Z,0
2018-03-15T02:31:17.686Z,0
2018-03-15T02:32:27.695Z,0
2018-03-15T02:33:37.696Z,0
2018-03-15T02:34:47.719Z,0
2018-03-15T02:35:57.724Z,0
2018-03-15T02:37:07.731Z,0
2018-03-15T02:38:17.733Z,0
2018-03-15T02:39:27.849Z,0
2018-03-15T02:40:37.593Z,0
2018-03-15T02:41:47.356Z,0
2018-03-15T02:42:57.087Z,0
2018-03-15T02:44:07.098Z,0
2018-03-15T02:45:17.100Z,0
2018-03-15T02:46:26.839Z,0
2018-03-15T02:47:36.582Z,0
2018-03-15T02:48:46.585Z,0
2018-03-15T02:49:56.575Z,0
2018-03-15T02:51:06.311Z,0
2018-03-15T02:52:16.308Z,0
2018-03-15T02:53:26.364Z,0
2018-03-15T02:54:36.089Z,0
2018-03-15T02:55:46.123Z,0
2018-03-15T02:56:56.131Z,0
2018-03-15T02:58:05.873Z,0
2018-03-15T02:59:15.338Z,0
2018-03-15T03:00:25.068Z,0
2018-03-15T03:01:35.065Z,0
2018-03-15T03:02:45.130Z,0
2018-03-15T03:03:55.128Z,0
2018-03-15T03:05:05.137Z,0
2018-03-15T03:06:14.602Z,0
2018-03-15T03:07:24.608Z,0
2018-03-15T03:08:34.610Z,0
2018-03-15T03:09:44.338Z,0
2018-03-15T03:10:54.341Z,0
2018-03-15T03:12:04.065Z,0
2018-03-15T03:13:13.807Z,0
2018-03-15T03:14:23.844Z,0
2018-03-15T03:15:33.571Z,0
2018-03-15T03:16:43.561Z,0
2018-03-15T03:17:53.029Z,0
2018-03-15T03:19:02.761Z,0
2018-03-15T03:20:12.580Z,0
2018-03-15T03:21:22.588Z,0
2018-03-15T03:22:32.039Z,0
2018-03-15T03:23:41.757Z,0
2018-03-15T03:24:51.789Z,0
2018-03-15T03:26:01.781Z,0
2018-03-15T03:27:11.237Z,0
2018-03-15T03:28:21.354Z,0
2018-03-15T03:29:31.345Z,0
2018-03-15T03:30:41.080Z,0
2018-03-15T03:31:50.540Z,0
2018-03-15T03:33:00.525Z,0
2018-03-15T03:34:10.523Z,0
2018-03-15T03:35:20.248Z,0
2018-03-15T03:36:29.974Z,0
2018-03-15T03:37:39.976Z,0
2018-03-15T03:38:49.967Z,0
2018-03-15T03:39:59.959Z,0
2018-03-15T03:41:09.688Z,0
2018-03-15T03:42:19.410Z,0
2018-03-15T03:43:29.406Z,0
2018-03-15T03:44:39.398Z,0
2018-03-15T03:45:49.121Z,0
2018-03-15T03:46:58.844Z,0
2018-03-15T03:48:08.572Z,0
2018-03-15T03:49:18.300Z,0
2018-03-15T03:50:28.300Z,0
2018-03-15T03:51:37.756Z,0
2018-03-15T03:52:47.475Z,0
2018-03-15T03:53:56.662Z,0
2018-03-15T03:55:06.121Z,0
2018-03-15T03:56:16.112Z,0
2018-03-15T03:57:26.102Z,0
2018-03-15T03:58:36.092Z,0
2018-03-15T03:59:45.554Z,0
2018-03-15T04:03:31.510Z,0
2018-03-15T04:04:41.509Z,0
2018-03-15T04:05:51.230Z,0
2018-03-15T04:07:00.686Z,0
2018-03-15T04:08:10.718Z,0
2018-03-15T04:09:20.704Z,0
2018-03-15T04:10:30.695Z,0
2018-03-15T04:11:40.688Z,0
2018-03-15T04:12:50.678Z,0
2018-03-15T04:14:00.672Z,0
2018-03-15T04:15:10.394Z,0
2018-03-15T04:16:20.395Z,0
2018-03-15T04:17:30.387Z,0
2018-03-15T04:18:40.387Z,0
2018-03-15T04:19:50.383Z,0
2018-03-15T04:21:00.493Z,0
2018-03-15T04:22:10.225Z,0
2018-03-15T04:23:20.221Z,0
2018-03-15T04:24:29.947Z,0
2018-03-15T04:25:39.671Z,0
2018-03-15T04:26:49.662Z,0
2018-03-15T04:27:58.632Z,0
2018-03-15T04:29:08.353Z,0
2018-03-15T04:30:18.080Z,0
2018-03-15T04:31:27.539Z,0
2018-03-15T04:32:37.532Z,0
2018-03-15T04:33:47.534Z,0
2018-03-15T04:34:57.528Z,0
2018-03-15T04:36:07.258Z,0
2018-03-15T04:37:17.021Z,0
2018-03-15T04:38:27.017Z,0
2018-03-15T04:39:36.745Z,0
2018-03-15T04:40:46.728Z,0
2018-03-15T04:41:56.719Z,0
2018-03-15T04:43:06.445Z,0
2018-03-15T04:44:15.909Z,0
2018-03-15T04:45:25.643Z,0
2018-03-15T04:46:35.636Z,0
2018-03-15T04:47:45.750Z,0
2018-03-15T04:48:55.736Z,0
2018-03-15T04:50:09.724Z,0
2018-03-15T04:51:19.833Z,4
2018-03-15T04:52:29.825Z,4
2018-03-15T04:53:39.820Z,0
2018-03-15T04:54:49.820Z,0
2018-03-15T04:55:59.549Z,4
2018-03-15T04:57:09.271Z,4
2018-03-15T04:58:18.193Z,0
2018-03-15T04:59:27.914Z,4
2018-03-15T05:00:37.640Z,4
2018-03-15T05:01:47.697Z,4
2018-03-15T05:02:57.419Z,4
2018-03-15T05:04:07.409Z,4
2018-03-15T05:05:17.413Z,8
2018-03-15T05:06:27.136Z,8
2018-03-15T05:07:36.863Z,8
2018-03-15T05:08:46.854Z,12
2018-03-15T05:09:56.849Z,16
2018-03-15T05:11:06.962Z,16
2018-03-15T05:12:16.969Z,20
2018-03-15T05:13:26.477Z,24
2018-03-15T05:14:35.941Z,28
2018-03-15T05:15:45.654Z,32
2018-03-15T05:16:55.110Z,36
2018-03-15T05:18:04.832Z,40
2018-03-15T05:19:14.564Z,52
2018-03-15T05:20:24.287Z,60
2018-03-15T05:21:33.746Z,68
2018-03-15T05:22:43.203Z,80
2018-03-15T05:23:53.190Z,92
2018-03-15T05:25:03.179Z,100
2018-03-15T05:26:13.169Z,120
2018-03-15T05:27:23.163Z,132
2018-03-15T05:28:33.168Z,148
2018-03-15T05:29:42.888Z,160
2018-03-15T05:30:52.884Z,180
2018-03-15T05:32:02.610Z,200
2018-03-15T05:33:12.334Z,220
2018-03-15T05:34:21.786Z,240
2018-03-15T05:35:31.783Z,268
2018-03-15T05:36:41.774Z,292
2018-03-15T05:37:51.240Z,320
2018-03-15T05:39:01.231Z,348
2018-03-15T05:40:11.226Z,372
2018-03-15T05:41:21.219Z,400
2018-03-15T05:42:30.945Z,428
2018-03-15T05:43:40.940Z,456
2018-03-15T05:44:50.991Z,484
2018-03-15T05:46:01.047Z,512
2018-03-15T05:47:10.774Z,548
2018-03-15T05:48:19.971Z,576
2018-03-15T05:49:29.970Z,612
2018-03-15T05:50:39.958Z,648
2018-03-15T05:51:49.148Z,696
2018-03-15T05:52:58.881Z,744
2018-03-15T05:54:08.596Z,788
2018-03-15T05:55:18.051Z,836
2018-03-15T05:56:27.509Z,884
2018-03-15T05:57:37.508Z,940
2018-03-15T05:58:47.237Z,992
2018-03-15T05:59:57.537Z,1048
2018-03-15T06:01:07.284Z,1100
2018-03-15T06:02:17.012Z,1140
2018-03-15T06:03:26.733Z,1184
2018-03-15T06:04:35.927Z,1216
2018-03-15T06:05:45.654Z,1232
2018-03-15T06:06:55.645Z,1256
2018-03-15T06:08:05.633Z,1312
2018-03-15T06:09:15.368Z,1372
2018-03-15T06:10:25.359Z,1428
2018-03-15T06:11:35.088Z,1480
2018-03-15T06:12:44.542Z,1536
2018-03-15T06:13:54.291Z,1592
2018-03-15T06:15:03.750Z,1656
2018-03-15T06:16:13.475Z,1728
2018-03-15T06:17:22.934Z,1808
2018-03-15T06:18:32.923Z,1864
2018-03-15T06:19:42.927Z,1904
2018-03-15T06:20:52.929Z,1940
2018-03-15T06:22:02.924Z,2004
2018-03-15T06:23:12.915Z,2080
2018-03-15T06:24:22.918Z,2184
2018-03-15T06:25:32.638Z,2300
2018-03-15T06:26:42.655Z,2420
2018-03-15T06:27:52.380Z,2532
2018-03-15T06:29:02.437Z,2632
2018-03-15T06:30:11.624Z,2740
2018-03-15T06:31:21.620Z,2844
2018-03-15T06:32:31.091Z,2944
2018-03-15T06:33:41.088Z,3036
2018-03-15T06:34:51.084Z,3116
2018-03-15T06:36:01.074Z,3180
2018-03-15T06:37:10.275Z,3252
2018-03-15T06:38:20.009Z,3300
2018-03-15T06:39:29.467Z,3328
2018-03-15T06:40:38.934Z,3336
2018-03-15T06:41:48.661Z,3332
2018-03-15T06:42:58.385Z,3332
2018-03-15T06:44:08.114Z,3336
2018-03-15T06:45:18.114Z,3316
2018-03-15T06:46:27.840Z,3256
2018-03-15T06:47:37.826Z,3216
2018-03-15T06:48:47.821Z,3236
2018-03-15T06:49:57.813Z,3328
2018-03-15T06:51:07.797Z,3448
2018-03-15T06:52:17.952Z,3540
2018-03-15T06:53:27.945Z,3632
2018-03-15T06:54:37.669Z,3728
2018-03-15T06:55:47.671Z,3800
2018-03-15T06:56:57.664Z,3892
2018-03-15T06:58:07.663Z,4008
2018-03-15T06:59:17.667Z,4120
2018-03-15T07:00:27.389Z,4200
2018-03-15T07:01:36.852Z,4152
2018-03-15T07:02:46.314Z,4012
2018-03-15T07:03:55.961Z,3868
2018-03-15T07:05:05.961Z,3760
2018-03-15T07:06:15.979Z,3672
2018-03-15T07:07:25.984Z,3604
2018-03-15T07:08:35.709Z,3524
2018-03-15T07:09:45.713Z,3604
2018-03-15T07:10:55.708Z,3776
2018-03-15T07:12:05.434Z,3980
2018-03-15T07:13:15.440Z,4168
2018-03-15T07:14:25.434Z,4348
2018-03-15T07:15:35.161Z,4520
2018-03-15T07:16:45.219Z,4700
2018-03-15T07:17:55.224Z,4884
2018-03-15T07:19:04.948Z,5032
2018-03-15T07:20:14.140Z,5160
2018-03-15T07:21:23.867Z,5288
2018-03-15T07:22:33.868Z,5260
2018-03-15T07:23:43.587Z,5292
2018-03-15T07:24:53.579Z,5460
2018-03-15T07:26:03.304Z,5580
2018-03-15T07:27:13.038Z,5612
2018-03-15T07:28:22.808Z,5636
2018-03-15T07:29:32.800Z,5640
2018-03-15T07:30:42.791Z,5736
2018-03-15T07:31:52.796Z,5936
2018-03-15T07:33:02.788Z,6144
2018-03-15T07:34:12.788Z,6368
2018-03-15T07:35:22.808Z,6636
2018-03-15T07:36:32.534Z,6916
2018-03-15T07:37:42.262Z,7192
2018-03-15T07:38:52.256Z,7432
2018-03-15T07:40:02.249Z,7660
2018-03-15T07:41:12.247Z,7892
2018-03-15T07:42:22.244Z,8100
2018-03-15T07:43:32.277Z,8216
2018-03-15T07:44:42.052Z,8344
2018-03-15T07:45:52.046Z,8420
2018-03-15T07:47:01.773Z,8424
2018-03-15T07:48:11.498Z,8372
2018-03-15T07:49:20.957Z,8332
2018-03-15T07:50:31.199Z,8336
2018-03-15T07:51:40.654Z,8344
2018-03-15T07:52:50.651Z,8408
2018-03-15T07:54:00.639Z,8392
2018-03-15T07:55:10.377Z,8176
2018-03-15T07:56:20.120Z,8016
2018-03-15T07:57:30.114Z,8020
2018-03-15T07:58:40.115Z,8312
2018-03-15T07:59:49.574Z,8876
2018-03-15T08:00:59.033Z,9128
2018-03-15T08:02:08.612Z,9280
2018-03-15T08:03:18.654Z,9436
2018-03-15T08:04:28.121Z,9552
2018-03-15T08:05:38.133Z,9548
2018-03-15T08:06:48.135Z,9504
2018-03-15T08:07:58.136Z,9308
2018-03-15T08:09:07.595Z,9288
2018-03-15T08:10:17.596Z,9580
2018-03-15T08:11:27.376Z,9872
2018-03-15T08:12:37.429Z,10096
2018-03-15T08:13:47.426Z,10232
2018-03-15T08:14:57.422Z,10296
2018-03-15T08:16:07.437Z,10388
2018-03-15T08:17:17.491Z,10524
2018-03-15T08:18:27.481Z,10716
2018-03-15T08:19:37.493Z,10924
2018-03-15T08:20:47.578Z,11048
2018-03-15T08:21:57.622Z,11096
2018-03-15T08:23:07.637Z,11124
2018-03-15T08:24:17.483Z,11092
2018-03-15T08:25:27.048Z,11044
2018-03-15T08:26:37.049Z,11112
2018-03-15T08:27:47.042Z,11212
2018-03-15T08:28:56.771Z,11328
2018-03-15T08:30:06.795Z,11480
2018-03-15T08:31:16.270Z,11612
2018-03-15T08:32:26.266Z,11608
2018-03-15T08:33:36.894Z,11440
2018-03-15T08:34:46.622Z,11188
2018-03-15T08:35:56.619Z,10920
2018-03-15T08:37:06.087Z,10676
2018-03-15T08:38:15.813Z,10436
2018-03-15T08:39:25.540Z,10208
2018-03-15T08:40:35.535Z,9980
2018-03-15T08:41:45.603Z,9764
2018-03-15T08:42:55.600Z,9624
2018-03-15T08:44:05.590Z,9604
2018-03-15T08:45:15.593Z,9680
2018-03-15T08:46:25.592Z,9780
2018-03-15T08:47:35.053Z,9888
2018-03-15T08:48:44.783Z,9972
2018-03-15T08:49:54.243Z,10044
2018-03-15T08:51:03.971Z,10068
2018-03-15T08:52:13.738Z,10040
2018-03-15T08:53:23.467Z,10000
2018-03-15T08:54:32.933Z,9976
2018-03-15T08:55:42.950Z,9952
2018-03-15T08:56:52.948Z,9924
2018-03-15T08:58:02.956Z,10000
2018-03-15T08:59:12.687Z,10028
2018-03-15T09:00:22.415Z,10020
2018-03-15T09:01:31.875Z,10164
2018-03-15T09:02:41.869Z,10320
2018-03-15T09:03:51.870Z,10660
2018-03-15T09:05:01.685Z,11016
2018-03-15T09:06:11.725Z,11504
2018-03-15T09:07:21.724Z,11816
2018-03-15T09:08:31.199Z,11832
2018-03-15T09:09:41.201Z,11680
2018-03-15T09:10:51.198Z,11508
2018-03-15T09:12:00.985Z,11396
2018-03-15T09:13:10.712Z,11452
2018-03-15T09:14:20.444Z,11664
2018-03-15T09:15:30.176Z,12208
2018-03-15T09:16:40.174Z,12764
2018-03-15T09:17:50.288Z,13172
2018-03-15T09:19:00.300Z,13420
2018-03-15T09:20:10.298Z,13736
2018-03-15T09:21:20.294Z,14028
2018-03-15T09:22:30.030Z,14240
2018-03-15T09:23:39.875Z,14328
2018-03-15T09:24:49.982Z,14444
2018-03-15T09:25:59.723Z,14648
2018-03-15T09:27:09.776Z,14908
2018-03-15T09:28:19.778Z,15216
2018-03-15T09:29:29.851Z,15484
2018-03-15T09:30:39.928Z,15728
2018-03-15T09:31:49.754Z,16020
2018-03-15T09:32:59.539Z,16344
2018-03-15T09:34:09.112Z,16664
2018-03-15T09:35:19.209Z,17120
2018-03-15T09:36:29.291Z,17376
2018-03-15T09:37:39.379Z,17600
2018-03-15T09:38:49.482Z,17888
2018-03-15T09:39:58.987Z,18144
2018-03-15T09:41:08.546Z,18400
2018-03-15T09:42:18.734Z,18560
2018-03-15T09:43:28.862Z,18592
2018-03-15T09:44:39.011Z,18656
2018-03-15T09:45:48.989Z,18784
2018-03-15T09:46:59.100Z,18944
2018-03-15T09:48:09.187Z,19104
2018-03-15T09:49:19.270Z,19200
2018-03-15T09:50:28.789Z,19072
2018-03-15T09:51:38.878Z,18976
2018-03-15T09:52:48.962Z,18976
2018-03-15T09:53:58.792Z,18944
2018-03-15T09:55:08.938Z,18976
2018-03-15T09:56:19.023Z,19104
2018-03-15T09:57:29.110Z,19200
2018-03-15T09:58:39.204Z,19520
2018-03-15T09:59:49.309Z,19488
2018-03-15T10:00:59.371Z,19200
2018-03-15T10:02:09.199Z,18944
2018-03-15T10:03:19.307Z,18912
2018-03-15T10:04:29.417Z,19168
2018-03-15T10:05:39.462Z,19520
2018-03-15T10:06:49.293Z,19840
2018-03-15T10:07:58.523Z,19232
2018-03-15T10:09:08.755Z,19136
2018-03-15T10:10:18.864Z,19712
2018-03-15T10:11:28.974Z,20416
2018-03-15T10:12:39.038Z,21376
2018-03-15T10:13:49.099Z,21248
2018-03-15T10:14:58.911Z,20224
2018-03-15T10:16:08.718Z,20256
2018-03-15T10:17:18.516Z,20256
2018-03-15T10:18:28.569Z,20064
2018-03-15T10:19:38.096Z,20096
2018-03-15T10:20:48.162Z,20416
2018-03-15T10:21:58.359Z,20800
2018-03-15T10:23:08.434Z,21344
2018-03-15T10:24:18.249Z,21856
2018-03-15T10:25:33.965Z,21664
2018-03-15T10:26:44.048Z,21632
2018-03-15T10:27:53.857Z,22240
2018-03-15T10:29:03.377Z,23520
2018-03-15T10:30:13.201Z,24736
2018-03-15T10:31:23.344Z,24896
2018-03-15T10:32:33.190Z,23648
2018-03-15T10:33:43.184Z,22912
2018-03-15T10:34:54.058Z,22624
2018-03-15T10:36:04.863Z,22880
2018-03-15T10:37:15.309Z,23200
2018-03-15T10:38:27.923Z,22848
2018-03-15T10:39:39.371Z,22176
2018-03-15T10:40:51.072Z,21344
2018-03-15T10:42:01.843Z,20576
2018-03-15T10:43:11.356Z,20384
2018-03-15T10:44:21.685Z,20896
2018-03-15T10:45:31.583Z,21472
2018-03-15T10:46:41.730Z,21856
2018-03-15T10:47:51.909Z,21792
2018-03-15T10:49:01.801Z,21216
2018-03-15T10:50:11.907Z,20928
2018-03-15T10:51:21.691Z,20736
2018-03-15T10:52:31.762Z,20480
2018-03-15T10:53:41.853Z,20160
2018-03-15T10:54:51.935Z,20576
2018-03-15T10:56:01.765Z,21152
2018-03-15T10:57:11.597Z,20832
2018-03-15T10:58:21.712Z,20576
2018-03-15T10:59:31.850Z,20544
2018-03-15T11:00:41.648Z,20448
2018-03-15T11:01:51.455Z,19936
2018-03-15T11:03:01.618Z,20032
2018-03-15T11:04:11.707Z,20288
2018-03-15T11:05:21.794Z,20512
2018-03-15T11:06:31.904Z,20608
2018-03-15T11:07:41.709Z,20992
2018-03-15T11:08:51.511Z,21504
2018-03-15T11:10:01.582Z,21952
2018-03-15T11:11:11.397Z,22016
2018-03-15T11:12:21.474Z,21312
2018-03-15T11:13:31.386Z,20768
2018-03-15T11:14:42.059Z,20192
2018-03-15T11:15:51.877Z,19808
2018-03-15T11:17:01.978Z,19872
2018-03-15T11:18:12.200Z,19744
2018-03-15T11:19:22.292Z,19488
2018-03-15T11:20:32.088Z,19744
2018-03-15T11:21:41.892Z,20640
2018-03-15T11:22:51.701Z,20864
2018-03-15T11:24:02.103Z,21408
2018-03-15T11:25:12.395Z,22272
2018-03-15T11:26:22.221Z,22880
2018-03-15T11:27:32.022Z,23552
2018-03-15T11:28:42.118Z,24640
2018-03-15T11:29:52.249Z,23744
2018-03-15T11:31:02.032Z,23232
2018-03-15T11:32:11.846Z,22336
2018-03-15T11:33:21.943Z,21824
2018-03-15T11:34:31.718Z,21728
2018-03-15T11:35:41.816Z,21856
2018-03-15T11:36:51.914Z,23840
2018-03-15T11:38:03.054Z,26592
2018-03-15T11:39:15.527Z,30144
2018-03-15T11:40:27.375Z,31456
2018-03-15T11:41:39.745Z,32160
2018-03-15T11:42:51.164Z,34336
2018-03-15T11:44:01.552Z,32864
2018-03-15T11:45:11.928Z,28480
2018-03-15T11:46:22.058Z,26176
2018-03-15T11:47:31.913Z,24000
2018-03-15T11:48:41.936Z,22336
2018-03-15T11:49:51.748Z,22464
2018-03-15T11:51:01.846Z,23072
2018-03-15T11:52:11.378Z,25600
2018-03-15T11:53:21.195Z,24512
2018-03-15T11:54:30.726Z,23328
2018-03-15T11:55:40.582Z,24000
2018-03-15T11:56:50.383Z,22016
2018-03-15T11:58:00.226Z,21248
2018-03-15T11:59:10.073Z,20736
2018-03-15T12:00:19.904Z,22400
2018-03-15T12:01:29.998Z,20128
2018-03-15T12:02:40.061Z,20576
2018-03-15T12:03:50.199Z,22080
2018-03-15T12:04:59.996Z,22880
2018-03-15T12:06:09.792Z,23072
2018-03-15T12:07:19.949Z,23488
2018-03-15T12:08:29.742Z,22912
2018-03-15T12:09:39.812Z,22080
2018-03-15T12:10:49.634Z,23744
2018-03-15T12:11:59.737Z,24768
2018-03-15T12:13:09.832Z,21888
2018-03-15T12:14:19.981Z,21952
2018-03-15T12:15:29.758Z,24224
2018-03-15T12:16:39.789Z,26240
2018-03-15T12:17:49.796Z,27680
2018-03-15T12:18:59.533Z,27808
2018-03-15T12:20:09.289Z,26976
2018-03-15T12:21:19.300Z,26304
2018-03-15T12:22:29.038Z,26688
2018-03-15T12:23:38.774Z,25504
2018-03-15T12:24:48.773Z,25952
2018-03-15T12:25:58.513Z,27712
2018-03-15T12:27:07.718Z,33824
2018-03-15T12:28:17.477Z,26720
2018-03-15T12:29:27.214Z,27456
2018-03-15T12:30:37.222Z,26560
2018-03-15T12:31:46.432Z,31936
2018-03-15T12:32:56.177Z,34144
2018-03-15T12:34:06.192Z,32288
2018-03-15T12:35:15.939Z,27776
2018-03-15T12:36:25.675Z,28128
2018-03-15T12:37:35.446Z,28448
2018-03-15T12:38:45.456Z,29632
2018-03-15T12:39:54.926Z,30592
2018-03-15T12:41:04.672Z,26112
2018-03-15T12:42:14.691Z,25856
2018-03-15T12:43:24.435Z,31136
2018-03-15T12:44:33.915Z,32992
2018-03-15T12:45:43.927Z,31680
2018-03-15T12:46:54.006Z,32096
2018-03-15T12:48:03.857Z,30592
2018-03-15T12:49:13.870Z,25440
2018-03-15T12:50:23.350Z,24576
2018-03-15T12:51:33.438Z,27904
2018-03-15T12:52:43.457Z,26976
2018-03-15T12:53:52.936Z,24384
2018-03-15T12:55:02.947Z,27552
2018-03-15T12:56:12.692Z,28160
2018-03-15T12:57:22.960Z,27392
2018-03-15T12:58:33.144Z,28320
2018-03-15T12:59:43.156Z,28320
2018-03-15T13:00:53.166Z,27776
2018-03-15T13:02:02.913Z,27648
2018-03-15T13:03:12.666Z,26944
2018-03-15T13:04:22.413Z,27520
2018-03-15T13:05:32.160Z,27872
2018-03-15T13:06:41.901Z,27776
2018-03-15T13:07:51.916Z,27488
2018-03-15T13:09:01.929Z,27328
2018-03-15T13:10:11.944Z,27616
2018-03-15T13:11:21.699Z,27520
2018-03-15T13:12:31.448Z,27488
2018-03-15T13:13:41.460Z,25504
2018-03-15T13:14:51.477Z,22240
2018-03-15T13:16:01.226Z,19968
2018-03-15T13:17:10.759Z,18688
2018-03-15T13:18:20.512Z,18336
2018-03-15T13:19:30.253Z,17856
2018-03-15T13:20:39.733Z,18976
2018-03-15T13:21:49.527Z,17760
2018-03-15T13:22:59.342Z,18560
2018-03-15T13:24:09.094Z,17344
2018-03-15T13:25:18.842Z,15320
2018-03-15T13:26:28.602Z,14228
2018-03-15T13:27:38.550Z,14772
2018-03-15T13:28:48.561Z,15096
2018-03-15T13:29:58.577Z,15284
2018-03-15T13:31:08.593Z,16924
2018-03-15T13:32:17.267Z,23040
2018-03-15T13:33:27.015Z,27136
2018-03-15T13:34:37.245Z,25408
2018-03-15T13:35:46.993Z,21600
2018-03-15T13:36:56.732Z,21120
2018-03-15T13:38:06.505Z,25152
2018-03-15T13:39:16.366Z,24960
2018-03-15T13:40:26.203Z,21344
2018-03-15T13:41:35.949Z,18304
2018-03-15T13:42:45.965Z,17344
2018-03-15T13:43:55.969Z,19808
2018-03-15T13:45:05.249Z,26496
2018-03-15T13:46:14.997Z,19168
2018-03-15T13:47:24.745Z,16604
2018-03-15T13:48:34.961Z,20640
2018-03-15T13:49:45.172Z,24992
2018-03-15T13:50:54.923Z,24640
2018-03-15T13:52:05.114Z,23424
2018-03-15T13:53:15.128Z,23680
2018-03-15T13:54:25.175Z,23840
2018-03-15T13:55:34.881Z,21824
2018-03-15T13:56:44.622Z,17760
2018-03-15T13:57:54.627Z,14656
2018-03-15T13:59:04.115Z,12944
2018-03-15T14:00:14.120Z,17056
2018-03-15T14:01:23.860Z,20032
2018-03-15T14:02:33.603Z,17664
2018-03-15T14:03:43.819Z,18848
2018-03-15T14:04:53.837Z,23360
2018-03-15T14:06:03.618Z,24448
2018-03-15T14:07:12.831Z,23040
2018-03-15T14:08:22.833Z,29504
2018-03-15T14:09:32.579Z,17056
2018-03-15T14:10:42.581Z,13420
2018-03-15T14:11:52.344Z,15656
2018-03-15T14:13:02.093Z,22080
2018-03-15T14:14:11.566Z,14036
2018-03-15T14:15:21.366Z,21536
2018-03-15T14:16:31.114Z,29792
2018-03-15T14:17:40.897Z,23680
2018-03-15T14:18:50.963Z,23712
2018-03-15T14:20:00.975Z,26400
2018-03-15T14:21:10.183Z,21824
2018-03-15T14:22:19.944Z,21312
2018-03-15T14:23:29.688Z,23936
2018-03-15T14:24:39.158Z,25024
2018-03-15T14:25:49.160Z,27360
2018-03-15T14:26:59.209Z,24672
2018-03-15T14:28:08.949Z,23520
2018-03-15T14:29:19.194Z,23328
2018-03-15T14:30:29.371Z,24128
2018-03-15T14:31:39.388Z,22944
2018-03-15T14:32:49.393Z,22208
2018-03-15T14:33:59.401Z,20288
2018-03-15T14:35:09.158Z,19968
2018-03-15T14:36:19.164Z,18208
2018-03-15T14:37:29.187Z,18688
2018-03-15T14:38:39.232Z,15332
2018-03-15T14:39:49.300Z,13980
2018-03-15T14:40:59.178Z,12744
2018-03-15T14:42:09.197Z,11764
2018-03-15T14:43:18.948Z,11156
2018-03-15T14:44:28.419Z,10468
2018-03-15T14:45:38.427Z,9692
2018-03-15T14:46:48.518Z,8984
2018-03-15T14:47:58.530Z,8988
2018-03-15T14:49:08.005Z,9400
2018-03-15T14:50:18.010Z,9944
2018-03-15T14:51:27.491Z,10732
2018-03-15T14:52:37.313Z,12456
2018-03-15T14:53:47.322Z,31552
2018-03-15T14:54:57.061Z,19840
2018-03-15T14:56:06.263Z,24512
2018-03-15T14:57:15.995Z,14676
2018-03-15T14:58:25.999Z,13684
2018-03-15T14:59:35.474Z,14164
2018-03-15T15:00:45.212Z,16352
2018-03-15T15:01:54.689Z,46400
2018-03-15T15:03:04.426Z,47936
2018-03-15T15:04:14.433Z,38240
2018-03-15T15:05:24.434Z,29600
2018-03-15T15:06:34.437Z,37568
2018-03-15T15:07:43.739Z,38688
2018-03-15T15:08:53.742Z,29696
2018-03-15T15:10:03.745Z,29120
2018-03-15T15:11:13.760Z,25632
2018-03-15T15:12:23.772Z,25024
2018-03-15T15:13:33.779Z,23008
2018-03-15T15:14:43.517Z,22528
2018-03-15T15:15:53.519Z,20288
2018-03-15T15:17:03.268Z,19648
2018-03-15T15:18:13.102Z,17920
2018-03-15T15:19:23.143Z,18112
2018-03-15T15:20:32.882Z,17504
2018-03-15T15:21:42.623Z,16064
2018-03-15T15:22:52.628Z,15648
2018-03-15T15:24:02.376Z,13868
2018-03-15T15:25:12.436Z,13168
2018-03-15T15:26:22.446Z,12796
2018-03-15T15:27:32.850Z,11516
2018-03-15T15:28:42.388Z,10520
2018-03-15T15:29:52.395Z,10252
2018-03-15T15:31:02.131Z,10260
2018-03-15T15:32:11.335Z,9880
2018-03-15T15:33:21.415Z,10064
2018-03-15T15:34:31.154Z,9236
2018-03-15T15:35:40.893Z,8564
2018-03-15T15:36:50.466Z,8408
2018-03-15T15:38:00.479Z,8296
2018-03-15T15:39:10.221Z,8292
2018-03-15T15:40:20.083Z,7948
2018-03-15T15:41:30.101Z,7516
2018-03-15T15:42:40.112Z,7444
2018-03-15T15:43:49.858Z,7020
2018-03-15T15:44:59.600Z,6712
2018-03-15T15:46:08.804Z,6608
2018-03-15T15:47:18.538Z,6248
2018-03-15T15:48:28.557Z,6044
2018-03-15T15:49:38.565Z,5772
2018-03-15T15:50:48.299Z,5676